createdAt,value
2022-12-12T00:03:24.102Z,-0.10
2022-12-12T00:08:26.309Z,-0.08
2022-12-12T00:13:28.139Z,-0.19
2022-12-12T00:18:30.165Z,-0.12
2022-12-12T00:23:31.711Z,-0.07
2022-12-12T00:28:33.868Z,-0.14
2022-12-12T00:33:35.413Z,-0.25
2022-12-12T00:38:36.991Z,-0.27
2022-12-12T00:43:38.929Z,-0.26
2022-12-12T00:48:40.834Z,-0.27
2022-12-12T00:53:42.475Z,-0.26
2022-12-12T00:58:44.184Z,-0.30
2022-12-12T01:03:46.338Z,-0.32
2022-12-12T01:08:48.036Z,-0.34
2022-12-12T01:13:50.989Z,-0.31
2022-12-12T01:18:52.868Z,-0.36
2022-12-12T01:23:54.585Z,-0.36
2022-12-12T01:28:56.512Z,-0.29
2022-12-12T01:33:58.123Z,-0.23
2022-12-12T01:39:00.663Z,-0.20
2022-12-12T01:44:04.234Z,-0.22
2022-12-12T01:49:08.641Z,-0.23
2022-12-12T01:54:15.023Z,-0.20
2022-12-12T01:59:18.939Z,-0.15
2022-12-12T02:04:21.872Z,-0.18
2022-12-12T02:09:25.118Z,-0.31
2022-12-12T02:14:34.577Z,-0.42
2022-12-12T02:19:36.095Z,-0.32
2022-12-12T02:24:51.729Z,-0.22
2022-12-12T02:29:53.288Z,-0.22
2022-12-12T02:35:11.871Z,-0.36
2022-12-12T02:40:27.248Z,-0.58
2022-12-12T02:45:37.097Z,-0.58
2022-12-12T02:50:40.768Z,-0.64
2022-12-12T02:55:42.345Z,-0.64
2022-12-12T03:00:52.062Z,-0.69
2022-12-12T03:06:20.451Z,-0.68
2022-12-12T03:11:25.841Z,-0.67
2022-12-12T03:16:30.525Z,-0.60
2022-12-12T03:21:47.142Z,-0.43
2022-12-12T03:26:52.551Z,-0.54
2022-12-12T03:31:58.374Z,-0.69
2022-12-12T03:37:15.533Z,-0.53
2022-12-12T03:42:17.201Z,-0.42
2022-12-12T03:47:22.348Z,-0.47
2022-12-12T03:52:30.704Z,-0.40
2022-12-12T03:57:35.004Z,-0.31
2022-12-12T04:02:51.762Z,-0.17
2022-12-12T04:07:57.460Z,-0.16
2022-12-12T04:13:06.810Z,-0.42
2022-12-12T04:18:26.800Z,-0.31
2022-12-12T04:23:46.933Z,-0.26
2022-12-12T04:29:02.707Z,-0.26
2022-12-12T04:34:07.615Z,-0.33
2022-12-12T04:39:10.342Z,-0.37
2022-12-12T04:44:12.648Z,-0.35
2022-12-12T04:49:15.612Z,-0.32
2022-12-12T04:54:20.041Z,-0.32
2022-12-12T04:59:22.111Z,-0.31
2022-12-12T05:04:29.268Z,-0.21
2022-12-12T05:09:30.900Z,-0.15
2022-12-12T05:14:32.632Z,-0.09
2022-12-12T05:19:34.216Z,-0.05
2022-12-12T05:24:36.901Z,-0.02
2022-12-12T05:29:38.664Z,-0.05
2022-12-12T05:34:40.284Z,-0.10
2022-12-12T05:39:41.931Z,-0.19
2022-12-12T05:44:43.552Z,-0.20
2022-12-12T05:49:45.349Z,-0.23
2022-12-12T05:54:47.071Z,-0.32
2022-12-12T05:59:48.861Z,-0.42
2022-12-12T06:04:50.588Z,-0.48
2022-12-12T06:09:52.261Z,-0.64
2022-12-12T06:14:53.977Z,-0.72
2022-12-12T06:19:56.078Z,-0.22
2022-12-12T06:24:57.843Z,0.53
2022-12-12T06:29:59.581Z,0.87
2022-12-12T06:35:01.151Z,0.48
2022-12-12T06:40:03.874Z,0.85
2022-12-12T06:45:06.346Z,1.10
2022-12-12T06:50:08.105Z,1.19
2022-12-12T06:55:09.773Z,0.84
2022-12-12T07:00:11.620Z,0.38
2022-12-12T07:05:13.669Z,0.10
2022-12-12T07:10:18.655Z,-0.12
2022-12-12T07:15:23.853Z,-0.23
2022-12-12T07:20:25.497Z,-0.29
2022-12-12T07:25:27.185Z,-0.35
2022-12-12T07:30:28.845Z,-0.41
2022-12-12T07:35:30.611Z,-0.45
2022-12-12T07:40:32.488Z,-0.47
2022-12-12T07:45:34.128Z,-0.52
2022-12-12T07:50:37.333Z,-0.49
2022-12-12T07:55:39.634Z,-0.48
2022-12-12T08:00:41.793Z,-0.54
2022-12-12T08:05:43.496Z,-0.61
2022-12-12T08:10:45.145Z,-0.61
2022-12-12T08:15:46.805Z,-0.65
2022-12-12T08:20:48.512Z,-0.76
2022-12-12T08:25:50.274Z,-0.76
2022-12-12T08:30:51.937Z,-0.95
2022-12-12T08:35:53.605Z,-0.87
2022-12-12T08:40:55.165Z,-0.84
2022-12-12T08:46:00.749Z,-0.68
2022-12-12T08:51:02.289Z,-0.56
2022-12-12T08:56:03.945Z,-0.39
2022-12-12T09:01:21.951Z,-0.32
2022-12-12T09:06:24.317Z,-0.27
2022-12-12T09:11:26.032Z,-0.28
2022-12-12T09:16:29.880Z,-0.26
2022-12-12T09:21:31.537Z,-0.21
2022-12-12T09:26:33.145Z,-0.26
2022-12-12T09:31:34.806Z,-0.26
2022-12-12T09:36:36.422Z,-0.17
2022-12-12T09:41:38.286Z,-0.18
2022-12-12T09:46:42.435Z,-0.15
2022-12-12T09:51:45.831Z,-0.09
2022-12-12T09:56:53.503Z,-0.04
2022-12-12T10:02:02.374Z,0.00
2022-12-12T10:07:12.760Z,-0.07
2022-12-12T10:12:16.310Z,-0.03
2022-12-12T10:17:22.637Z,0.12
2022-12-12T10:22:30.484Z,0.06
2022-12-12T10:27:32.077Z,-0.09
2022-12-12T10:32:55.831Z,-0.13
2022-12-12T10:38:00.226Z,-0.05
2022-12-12T10:43:13.157Z,0.03
2022-12-12T10:48:14.751Z,-0.07
2022-12-12T10:53:16.673Z,0.13
2022-12-12T10:58:24.014Z,0.13
2022-12-12T11:03:27.936Z,0.12
2022-12-12T11:08:31.179Z,0.10
2022-12-12T11:13:39.253Z,-0.08
2022-12-12T11:18:44.888Z,0.00
2022-12-12T11:23:50.912Z,0.15
2022-12-12T11:29:01.105Z,0.18
2022-12-12T11:34:05.396Z,0.06
2022-12-12T11:39:21.344Z,0.11
2022-12-12T11:44:27.965Z,0.26
2022-12-12T11:49:30.907Z,0.30
2022-12-12T11:54:33.412Z,0.19
2022-12-12T11:59:41.569Z,0.21
2022-12-12T12:04:53.113Z,-0.03
2022-12-12T12:09:55.214Z,-0.31
2022-12-12T12:15:15.450Z,-0.32
2022-12-12T12:20:32.445Z,-0.26
2022-12-12T12:25:41.962Z,-0.13
2022-12-12T12:31:02.958Z,-0.04
2022-12-12T12:36:20.728Z,0.26
2022-12-12T12:41:29.162Z,0.62
2022-12-12T12:46:39.944Z,0.73
2022-12-12T12:51:50.068Z,0.77
2022-12-12T12:57:01.249Z,0.91
2022-12-12T13:02:10.931Z,1.02
2022-12-12T13:07:24.777Z,1.31
2022-12-12T13:12:30.268Z,1.40
2022-12-12T13:17:44.445Z,1.19
2022-12-12T13:22:55.012Z,1.15
2022-12-12T13:27:58.712Z,1.20
2022-12-12T13:33:19.087Z,1.22
2022-12-12T13:38:27.883Z,1.27
2022-12-12T13:43:32.471Z,1.35
2022-12-12T13:48:42.912Z,1.33
2022-12-12T13:53:47.742Z,1.13
2022-12-12T13:58:49.414Z,0.98
2022-12-12T14:03:51.188Z,0.99
2022-12-12T14:08:53.799Z,0.92
2022-12-12T14:14:16.852Z,0.90
2022-12-12T14:19:26.013Z,1.20
2022-12-12T14:24:30.449Z,1.84
2022-12-12T14:29:32.730Z,2.12
2022-12-12T14:34:34.315Z,2.25
2022-12-12T14:39:41.894Z,2.32
2022-12-12T14:44:47.867Z,2.39
2022-12-12T14:50:18.661Z,2.36
2022-12-12T14:55:22.836Z,2.40
2022-12-12T15:00:26.216Z,2.37
2022-12-12T15:05:27.802Z,2.21
2022-12-12T15:10:30.458Z,1.78
2022-12-12T15:15:33.779Z,1.54
2022-12-12T15:20:35.501Z,1.23
2022-12-12T15:25:40.926Z,0.93
2022-12-12T15:30:43.632Z,0.75
2022-12-12T15:35:57.872Z,0.77
2022-12-12T15:41:09.487Z,0.80
2022-12-12T15:46:15.754Z,0.79
2022-12-12T15:51:22.979Z,0.73
2022-12-12T15:56:29.050Z,0.53
2022-12-12T16:01:31.209Z,0.52
2022-12-12T16:06:34.581Z,0.55
2022-12-12T16:11:38.409Z,0.53
2022-12-12T16:16:43.619Z,0.44
2022-12-12T16:21:45.252Z,0.23
2022-12-12T16:26:47.180Z,0.14
2022-12-12T16:31:48.840Z,-0.02
2022-12-12T16:36:50.541Z,-0.27
2022-12-12T16:41:52.114Z,-0.40
2022-12-12T16:46:53.718Z,-0.45
2022-12-12T16:51:56.322Z,-0.54
2022-12-12T16:56:58.114Z,-0.96
2022-12-12T17:01:59.708Z,-1.18
2022-12-12T17:07:01.437Z,-1.36
2022-12-12T17:12:03.104Z,-1.60
2022-12-12T17:17:05.144Z,-1.82
2022-12-12T17:22:06.853Z,-1.94
2022-12-12T17:27:08.428Z,-2.01
2022-12-12T17:32:10.033Z,-2.05
2022-12-12T17:37:12.417Z,-2.18
2022-12-12T17:42:14.215Z,-2.25
2022-12-12T17:47:16.888Z,-2.20
2022-12-12T17:52:19.315Z,-2.20
2022-12-12T17:57:25.256Z,-2.26
2022-12-12T18:02:27.148Z,-2.24
2022-12-12T18:07:29.163Z,-2.27
2022-12-12T18:12:31.376Z,-2.30
2022-12-12T18:17:32.944Z,-2.45
2022-12-12T18:22:35.391Z,-2.47
2022-12-12T18:27:38.097Z,-2.53
2022-12-12T18:32:39.748Z,-2.77
2022-12-12T18:37:41.864Z,-2.85
2022-12-12T18:42:45.012Z,-2.88
2022-12-12T18:47:47.158Z,-2.85
2022-12-12T18:52:48.834Z,-2.86
2022-12-12T18:57:53.595Z,-3.06
2022-12-12T19:02:55.195Z,-3.29
2022-12-12T19:07:56.926Z,-3.28
2022-12-12T19:12:58.709Z,-3.49
2022-12-12T19:18:00.366Z,-3.46
2022-12-12T19:23:02.122Z,-3.46
2022-12-12T19:28:03.853Z,-3.39
2022-12-12T19:33:08.333Z,-3.37
2022-12-12T19:38:10.029Z,-3.62
2022-12-12T19:43:11.691Z,-3.89
2022-12-12T19:48:13.506Z,-4.02
2022-12-12T19:53:15.564Z,-4.03
2022-12-12T19:58:17.388Z,-3.87
2022-12-12T20:03:19.187Z,-3.70
2022-12-12T20:08:22.288Z,-3.65
2022-12-12T20:13:25.767Z,-3.70
2022-12-12T20:18:27.403Z,-4.04
2022-12-12T20:23:34.223Z,-4.31
2022-12-12T20:28:36.403Z,-4.38
2022-12-12T20:33:38.532Z,-4.35
2022-12-12T20:38:40.189Z,-4.29
2022-12-12T20:43:42.429Z,-4.38
2022-12-12T20:48:44.451Z,-4.31
2022-12-12T20:53:47.748Z,-4.39
2022-12-12T20:58:52.483Z,-4.67
2022-12-12T21:03:54.172Z,-4.63
2022-12-12T21:08:55.884Z,-4.43
2022-12-12T21:13:57.681Z,-4.28
2022-12-12T21:19:01.708Z,-4.33
2022-12-12T21:24:03.377Z,-4.27
2022-12-12T21:29:05.148Z,-4.26
2022-12-12T21:34:06.744Z,-4.38
2022-12-12T21:39:11.850Z,-4.63
2022-12-12T21:44:13.445Z,-4.79
2022-12-12T21:49:28.271Z,-4.77
2022-12-12T21:54:30.405Z,-4.83
2022-12-12T21:59:32.535Z,-4.92
2022-12-12T22:04:34.212Z,-4.85
2022-12-12T22:09:35.763Z,-4.90
2022-12-12T22:14:37.339Z,-4.94
2022-12-12T22:19:39.054Z,-5.03
2022-12-12T22:24:40.645Z,-5.02
2022-12-12T22:29:42.216Z,-4.96
2022-12-12T22:34:44.049Z,-4.98
2022-12-12T22:39:45.655Z,-4.95
2022-12-12T22:44:48.211Z,-5.03
2022-12-12T22:49:50.083Z,-5.07
2022-12-12T22:54:51.827Z,-5.10
2022-12-12T22:59:53.444Z,-5.05
2022-12-12T23:04:55.155Z,-4.98
2022-12-12T23:09:58.914Z,-4.95
2022-12-12T23:15:00.532Z,-5.13
2022-12-12T23:20:03.056Z,-5.13
2022-12-12T23:25:04.822Z,-5.08
2022-12-12T23:30:06.870Z,-5.21
2022-12-12T23:35:08.811Z,-5.36
2022-12-12T23:40:10.789Z,-5.34
2022-12-12T23:45:13.196Z,-5.58
2022-12-12T23:50:15.149Z,-5.75
2022-12-12T23:55:17.044Z,-5.73
